Time;durP1;ratioP1;P1;durP2;ratioP2;P2;SDS_P1;SDS_P2;PMS_P1;PMS_P2;Temp;Humidity;BMP_temperature;BMP_pressure;BME280_temperature;BME280_humidity;BME280_pressure;Samples;Min_cycle;Max_cycle;Signal;HPM_P1;HPM_P2
2022/07/30 00:01:56;;;;;;;0.50;0.50;;;21.10;93.50;;;;;;5107860;28;20204;-40
2022/07/30 00:04:23;;;;;;;0.50;0.50;;;21.00;93.50;;;;;;5095171;27;20271;-43
2022/07/30 00:06:50;;;;;;;0.40;0.40;;;21.10;93.70;;;;;;5105634;28;20245;-43
2022/07/30 00:09:17;;;;;;;0.50;0.50;;;21.00;93.70;;;;;;5106628;27;20208;-41
2022/07/30 00:11:44;;;;;;;0.50;0.50;;;21.00;93.70;;;;;;5107590;28;20569;-42
2022/07/30 00:14:11;;;;;;;1.10;0.70;;;21.10;93.80;;;;;;5101733;27;20230;-39
2022/07/30 00:16:40;;;;;;;0.80;0.80;;;21.00;93.90;;;;;;5107123;28;20271;-40
2022/07/30 00:19:07;;;;;;;0.60;0.60;;;21.00;93.90;;;;;;5105057;27;20270;-44
2022/07/30 00:21:34;;;;;;;0.50;0.50;;;21.00;94.00;;;;;;5108130;27;20275;-39
2022/07/30 00:24:01;;;;;;;0.55;0.55;;;21.00;94.10;;;;;;5106466;27;20285;-39
2022/07/30 00:26:28;;;;;;;0.40;0.40;;;21.00;94.20;;;;;;5102703;27;20249;-42
2022/07/30 00:28:55;;;;;;;0.57;0.57;;;20.90;94.20;;;;;;5100094;28;20294;-40
2022/07/30 00:31:23;;;;;;;0.50;0.50;;;21.00;94.30;;;;;;5108215;27;20536;-40
2022/07/30 00:33:51;;;;;;;0.40;0.40;;;20.90;94.40;;;;;;5101511;28;20583;-41
2022/07/30 00:36:18;;;;;;;0.50;0.50;;;20.90;94.50;;;;;;5107292;27;20216;-40
2022/07/30 00:38:45;;;;;;;0.93;0.70;;;20.90;94.60;;;;;;5108730;28;20192;-42
2022/07/30 00:41:13;;;;;;;0.60;0.60;;;20.90;95.10;;;;;;5110150;28;20271;-41
2022/07/30 00:43:40;;;;;;;0.50;0.50;;;20.90;94.80;;;;;;5107251;27;20627;-46
2022/07/30 00:46:07;;;;;;;0.60;0.60;;;20.80;94.80;;;;;;5106200;28;20284;-48
2022/07/30 00:48:34;;;;;;;0.50;0.50;;;20.90;94.90;;;;;;5108647;28;20219;-44
2022/07/30 00:51:02;;;;;;;0.55;0.55;;;20.80;95.00;;;;;;5106401;27;20195;-44
2022/07/30 00:53:30;;;;;;;0.47;0.47;;;20.80;95.00;;;;;;5106332;27;20188;-40
2022/07/30 00:55:57;;;;;;;1.65;0.63;;;20.80;95.10;;;;;;5105359;27;20295;-45
2022/07/30 00:58:24;;;;;;;0.63;0.57;;;20.80;95.20;;;;;;5105539;28;20219;-41
2022/07/30 01:00:51;;;;;;;0.40;0.40;;;20.70;95.20;;;;;;5107592;28;20203;-42
2022/07/30 01:03:18;;;;;;;0.50;0.50;;;20.70;95.30;;;;;;5107524;28;20191;-47
2022/07/30 01:05:45;;;;;;;0.50;0.50;;;20.70;95.40;;;;;;5109265;27;20192;-40
2022/07/30 01:08:14;;;;;;;0.52;0.50;;;20.80;95.50;;;;;;5103038;28;20216;-40
2022/07/30 01:10:41;;;;;;;0.85;0.70;;;20.70;95.50;;;;;;5104639;28;20183;-48
2022/07/30 01:13:09;;;;;;;0.57;0.50;;;20.70;95.60;;;;;;5100257;28;20658;-46
2022/07/30 01:15:37;;;;;;;0.40;0.40;;;20.70;95.60;;;;;;5106355;27;20239;-46
2022/07/30 01:18:07;;;;;;;0.40;0.40;;;20.70;95.70;;;;;;5104724;28;20240;-43
2022/07/30 01:20:39;;;;;;;0.65;0.50;;;20.70;95.80;;;;;;5100999;28;20603;-41
2022/07/30 01:23:13;;;;;;;1.02;0.68;;;20.70;95.90;;;;;;5105697;28;20188;-46
2022/07/30 01:25:54;;;;;;;0.43;0.43;;;20.70;96.00;;;;;;5101502;28;20219;-41
2022/07/30 01:28:25;;;;;;;0.50;0.50;;;20.70;96.00;;;;;;5099804;28;20222;-42
2022/07/30 01:30:55;;;;;;;0.50;0.50;;;20.70;96.00;;;;;;5095861;28;20199;-41
2022/07/30 01:33:24;;;;;;;0.50;0.50;;;20.60;96.10;;;;;;5103446;28;20622;-42
2022/07/30 01:35:52;;;;;;;0.60;0.60;;;20.60;96.20;;;;;;5100246;28;20292;-40
2022/07/30 01:38:22;;;;;;;0.55;0.55;;;20.60;96.30;;;;;;5107066;28;20680;-40
2022/07/30 01:40:52;;;;;;;0.50;0.50;;;20.60;96.30;;;;;;5102857;28;20292;-40
2022/07/30 01:43:22;;;;;;;0.50;0.50;;;20.60;96.40;;;;;;5097821;28;20200;-39
2022/07/30 01:45:51;;;;;;;0.90;0.70;;;20.60;96.40;;;;;;5104497;28;20204;-39
2022/07/30 01:48:23;;;;;;;0.60;0.60;;;20.60;96.50;;;;;;5104476;28;20200;-38
2022/07/30 01:50:55;;;;;;;0.50;0.50;;;20.50;96.60;;;;;;5103691;28;20214;-39
2022/07/30 01:53:25;;;;;;;0.40;0.40;;;20.50;96.70;;;;;;5102147;28;20210;-40
2022/07/30 01:55:55;;;;;;;0.70;0.70;;;20.40;96.70;;;;;;5102215;28;20658;-42
2022/07/30 01:58:29;;;;;;;0.75;0.75;;;20.50;96.80;;;;;;5119331;27;20661;-40
2022/07/30 02:01:03;;;;;;;0.75;0.75;;;20.40;96.90;;;;;;5105342;28;20206;-39
2022/07/30 02:03:31;;;;;;;0.70;0.70;;;20.40;97.00;;;;;;5098328;28;20314;-39
2022/07/30 02:06:01;;;;;;;0.60;0.60;;;20.40;97.00;;;;;;5098931;28;20618;-40
2022/07/30 02:08:36;;;;;;;0.60;0.60;;;20.40;97.00;;;;;;5095654;28;20199;-40
2022/07/30 02:11:09;;;;;;;0.70;0.70;;;20.50;97.00;;;;;;5105715;28;20404;-39
2022/07/30 02:13:44;;;;;;;0.68;0.60;;;20.40;97.00;;;;;;5097937;28;20212;-39
2022/07/30 02:16:16;;;;;;;0.70;0.70;;;20.40;97.10;;;;;;5062745;28;1127553;-38
2022/07/30 02:18:50;;;;;;;0.63;0.60;;;20.40;97.10;;;;;;5105765;28;20216;-41
2022/07/30 02:21:20;;;;;;;0.85;0.68;;;20.40;97.10;;;;;;5106152;28;20195;-40
2022/07/30 02:23:48;;;;;;;0.80;0.60;;;20.40;97.20;;;;;;5103738;28;20210;-39
2022/07/30 02:26:21;;;;;;;2.35;0.47;;;20.40;97.20;;;;;;5105419;28;20195;-39
2022/07/30 02:28:51;;;;;;;0.75;0.75;;;20.40;97.20;;;;;;5098900;28;20483;-40
2022/07/30 02:31:22;;;;;;;0.77;0.60;;;20.40;97.20;;;;;;5108732;27;20214;-40
2022/07/30 02:33:53;;;;;;;0.70;0.70;;;20.40;97.20;;;;;;5101603;28;20204;-42
2022/07/30 02:36:21;;;;;;;0.75;0.70;;;20.40;97.60;;;;;;5106873;27;20558;-40
2022/07/30 02:38:51;;;;;;;0.60;0.60;;;20.30;97.20;;;;;;5110349;28;20298;-39
2022/07/30 02:41:23;;;;;;;0.47;0.47;;;20.40;97.30;;;;;;5099839;28;20593;-41
2022/07/30 02:43:52;;;;;;;0.70;0.70;;;20.40;97.30;;;;;;5101058;27;20224;-43
2022/07/30 02:46:22;;;;;;;0.70;0.70;;;20.30;97.30;;;;;;5101543;28;20184;-40
2022/07/30 02:49:15;;;;;;;0.90;0.90;;;20.40;97.40;;;;;;5105838;27;20196;-40
2022/07/30 02:51:43;;;;;;;0.60;0.60;;;20.30;97.40;;;;;;5104071;27;20210;-39
2022/07/30 02:54:11;;;;;;;0.68;0.68;;;20.30;97.40;;;;;;5111366;28;20303;-41
2022/07/30 02:56:42;;;;;;;1.80;0.70;;;20.20;97.50;;;;;;5101685;28;20212;-42
2022/07/30 02:59:11;;;;;;;0.80;0.80;;;20.20;97.50;;;;;;5105567;27;20297;-39
2022/07/30 03:01:38;;;;;;;0.60;0.60;;;20.20;97.60;;;;;;5105935;27;20712;-43
2022/07/30 03:04:07;;;;;;;1.20;0.80;;;20.20;97.70;;;;;;5103246;27;20192;-41
2022/07/30 03:06:36;;;;;;;1.02;0.90;;;20.20;97.60;;;;;;5106279;27;20227;-39
2022/07/30 03:09:05;;;;;;;0.80;0.80;;;20.20;97.70;;;;;;5105829;28;20249;-38
2022/07/30 03:11:34;;;;;;;1.00;1.00;;;20.20;97.70;;;;;;5102415;28;20290;-41
2022/07/30 03:14:02;;;;;;;0.80;0.80;;;20.20;97.80;;;;;;5100381;27;20286;-41
2022/07/30 03:16:33;;;;;;;0.95;0.85;;;20.10;97.70;;;;;;5105047;28;20232;-44
2022/07/30 03:19:02;;;;;;;1.15;0.95;;;20.20;97.80;;;;;;5109104;27;20644;-38
2022/07/30 03:21:33;;;;;;;0.80;0.80;;;20.20;97.80;;;;;;5101335;28;20200;-38
2022/07/30 03:24:03;;;;;;;0.85;0.85;;;20.20;97.80;;;;;;5107009;28;20783;-38
2022/07/30 03:26:30;;;;;;;0.77;0.77;;;20.20;97.80;;;;;;5103767;28;20554;-42
2022/07/30 03:28:59;;;;;;;2.90;0.95;;;20.20;97.80;;;;;;5105984;28;20558;-39
2022/07/30 03:31:28;;;;;;;2.25;1.00;;;20.20;97.90;;;;;;5107012;27;20204;-40
2022/07/30 03:33:56;;;;;;;0.85;0.82;;;20.20;97.90;;;;;;5101166;27;20880;-39
2022/07/30 03:36:23;;;;;;;1.15;1.05;;;20.10;97.90;;;;;;5106805;28;20231;-44
2022/07/30 03:38:52;;;;;;;1.05;0.90;;;20.10;97.90;;;;;;5099028;28;20199;-42
2022/07/30 03:41:21;;;;;;;0.80;0.80;;;20.10;97.90;;;;;;5107051;27;20207;-42
2022/07/30 03:43:49;;;;;;;0.90;0.90;;;20.20;98.00;;;;;;5096369;27;20203;-42
2022/07/30 03:46:18;;;;;;;0.77;0.77;;;20.10;97.90;;;;;;5106665;27;20819;-41
2022/07/30 03:48:53;;;;;;;1.85;0.90;;;20.20;98.00;;;;;;5098415;28;20204;-42
2022/07/30 03:51:21;;;;;;;0.70;0.70;;;20.10;98.00;;;;;;5107282;28;20711;-43
2022/07/30 03:53:50;;;;;;;1.10;1.00;;;20.10;98.00;;;;;;5103738;28;20188;-47
2022/07/30 03:56:36;;;;;;;3.50;0.80;;;20.10;98.10;;;;;;5110033;27;20210;-45
2022/07/30 03:59:19;;;;;;;1.27;0.95;;;20.10;98.10;;;;;;5099722;28;20207;-43
2022/07/30 04:01:46;;;;;;;1.20;0.75;;;20.10;98.10;;;;;;5101517;27;20580;-42
2022/07/30 04:04:22;;;;;;;0.85;0.80;;;20.10;98.10;;;;;;5102278;28;20199;-45
2022/07/30 04:06:50;;;;;;;2.13;0.90;;;20.10;98.10;;;;;;5100212;28;20193;-47
2022/07/30 04:09:19;;;;;;;0.80;0.80;;;20.10;98.20;;;;;;5108740;27;20195;-41
2022/07/30 04:11:47;;;;;;;1.38;1.02;;;20.10;98.20;;;;;;5109684;27;20206;-38
2022/07/30 04:14:17;;;;;;;1.02;0.93;;;20.20;98.20;;;;;;5100380;28;20217;-42
2022/07/30 04:16:50;;;;;;;0.93;0.80;;;20.20;98.20;;;;;;5103632;28;20230;-38
2022/07/30 04:19:26;;;;;;;0.80;0.80;;;20.20;98.10;;;;;;5098140;28;20703;-42
2022/07/30 04:21:55;;;;;;;1.33;0.80;;;20.20;98.10;;;;;;5122666;27;20195;-42
2022/07/30 04:24:23;;;;;;;1.98;1.00;;;20.30;98.20;;;;;;5120316;27;20642;-42
2022/07/30 04:26:52;;;;;;;1.60;0.60;;;20.30;98.50;;;;;;5132626;27;20200;-43
2022/07/30 04:29:20;;;;;;;0.70;0.70;;;20.40;98.20;;;;;;5100574;28;20722;-43
2022/07/30 04:31:47;;;;;;;2.35;0.95;;;20.40;98.20;;;;;;5108658;28;20594;-43
2022/07/30 04:34:47;;;;;;;3.10;0.77;;;20.40;98.20;;;;;;5075830;27;20232;-43
2022/07/30 04:37:17;;;;;;;1.08;0.90;;;20.40;98.20;;;;;;5119871;27;20299;-45
2022/07/30 04:39:44;;;;;;;2.60;0.88;;;20.40;98.20;;;;;;5121811;27;20204;-45
2022/07/30 04:42:12;;;;;;;1.05;0.60;;;20.50;98.30;;;;;;5107599;28;20196;-42
2022/07/30 04:44:39;;;;;;;0.95;0.88;;;20.50;98.30;;;;;;5094727;28;20212;-42
2022/07/30 04:47:25;;;;;;;0.70;0.70;;;20.50;98.30;;;;;;5104457;27;20310;-42
2022/07/30 04:50:34;;;;;;;2.47;1.17;;;20.50;98.30;;;;;;5005333;28;20191;-48
2022/07/30 04:53:03;;;;;;;0.77;0.65;;;20.60;98.40;;;;;;4990226;28;20687;-43
2022/07/30 04:55:35;;;;;;;1.13;0.70;;;20.60;98.40;;;;;;5057127;28;20199;-50
2022/07/30 04:58:03;;;;;;;1.52;0.80;;;20.60;98.30;;;;;;5098181;28;20754;-42
2022/07/30 05:00:35;;;;;;;0.57;0.57;;;20.60;98.30;;;;;;5103078;28;20196;-43
2022/07/30 05:03:05;;;;;;;1.25;0.93;;;20.60;98.30;;;;;;5103471;28;20408;-41
2022/07/30 05:05:35;;;;;;;0.82;0.82;;;20.60;98.30;;;;;;5103428;28;20187;-38
2022/07/30 05:08:03;;;;;;;0.80;0.80;;;20.70;98.40;;;;;;5102670;28;20218;-39
2022/07/30 05:10:32;;;;;;;3.15;0.88;;;20.70;98.30;;;;;;5101163;27;20228;-38
2022/07/30 05:13:00;;;;;;;2.05;0.90;;;20.70;98.20;;;;;;5121983;27;21105;-38
2022/07/30 05:15:28;;;;;;;0.70;0.70;;;20.70;98.20;;;;;;5122303;27;20218;-37
2022/07/30 05:17:56;;;;;;;0.68;0.68;;;20.80;98.10;;;;;;5097702;28;20591;-37
2022/07/30 05:20:23;;;;;;;0.75;0.75;;;20.80;98.00;;;;;;5102238;28;20585;-37
2022/07/30 05:23:06;;;;;;;1.52;0.90;;;20.80;97.90;;;;;;5100006;28;20714;-38
2022/07/30 05:25:33;;;;;;;0.70;0.70;;;20.90;97.90;;;;;;5103698;28;20551;-41
2022/07/30 05:28:14;;;;;;;0.90;0.90;;;20.90;97.70;;;;;;5099313;28;20563;-38
2022/07/30 05:30:41;;;;;;;0.70;0.70;;;21.00;97.50;;;;;;5106004;27;20202;-43
2022/07/30 05:33:10;;;;;;;0.85;0.85;;;21.00;97.20;;;;;;5098410;27;20287;-38
2022/07/30 05:35:37;;;;;;;1.00;1.00;;;21.00;96.90;;;;;;5107348;28;20200;-39
2022/07/30 05:38:06;;;;;;;1.00;1.00;;;21.00;96.60;;;;;;5094708;28;20200;-37
2022/07/30 05:40:45;;;;;;;1.55;1.05;;;21.10;96.20;;;;;;5104617;27;20245;-37
2022/07/30 05:43:31;;;;;;;0.77;0.77;;;21.10;95.20;;;;;;5102183;27;20318;-39
2022/07/30 05:45:58;;;;;;;0.82;0.73;;;21.10;95.00;;;;;;5100192;28;20249;-42
2022/07/30 05:48:26;;;;;;;0.60;0.60;;;21.10;94.90;;;;;;5094817;28;20224;-41
2022/07/30 05:50:53;;;;;;;0.80;0.70;;;21.20;94.90;;;;;;5097127;28;20204;-39
2022/07/30 05:53:22;;;;;;;0.88;0.73;;;21.20;94.70;;;;;;5095034;28;20205;-37
2022/07/30 05:56:27;;;;;;;0.60;0.60;;;21.20;94.60;;;;;;5044032;28;20719;-38
2022/07/30 05:59:02;;;;;;;1.00;1.00;;;21.30;94.40;;;;;;5022328;28;20193;-38
2022/07/30 06:01:49;;;;;;;0.80;0.80;;;21.30;94.20;;;;;;5081644;28;20220;-39
2022/07/30 06:04:23;;;;;;;0.90;0.90;;;21.30;94.10;;;;;;5101166;28;20196;-41
2022/07/30 06:06:55;;;;;;;1.00;1.00;;;21.40;93.90;;;;;;5103332;28;20199;-38
2022/07/30 06:09:25;;;;;;;0.88;0.88;;;21.40;93.50;;;;;;5101279;28;20206;-38
2022/07/30 06:11:52;;;;;;;0.80;0.80;;;21.50;93.40;;;;;;5100914;28;20226;-43
2022/07/30 06:14:19;;;;;;;0.70;0.70;;;21.50;93.50;;;;;;5099066;28;20207;-37
2022/07/30 06:16:46;;;;;;;0.45;0.45;;;21.50;93.50;;;;;;5105685;28;20336;-39
2022/07/30 06:19:14;;;;;;;0.77;0.70;;;21.60;93.60;;;;;;5103470;28;20298;-39
2022/07/30 06:21:45;;;;;;;0.55;0.55;;;21.50;93.70;;;;;;5101713;28;20276;-40
2022/07/30 06:24:13;;;;;;;0.50;0.50;;;21.60;93.90;;;;;;5099495;28;20540;-40
2022/07/30 06:26:50;;;;;;;0.50;0.50;;;21.70;94.10;;;;;;5123976;28;20281;-40
2022/07/30 06:29:17;;;;;;;0.50;0.50;;;21.70;94.10;;;;;;5095954;28;20196;-37
2022/07/30 06:31:44;;;;;;;0.73;0.50;;;21.70;94.10;;;;;;5099590;28;20200;-43
2022/07/30 06:34:12;;;;;;;1.70;0.80;;;21.80;94.20;;;;;;5101881;28;21241;-38
2022/07/30 06:36:42;;;;;;;0.60;0.60;;;21.80;94.10;;;;;;5101603;28;20218;-38
2022/07/30 06:39:20;;;;;;;0.70;0.70;;;21.80;94.00;;;;;;5096963;28;20192;-38
2022/07/30 06:41:54;;;;;;;0.50;0.50;;;21.90;93.90;;;;;;5108816;28;20211;-43
2022/07/30 06:44:21;;;;;;;0.68;0.57;;;21.90;93.90;;;;;;5092553;28;20594;-44
2022/07/30 06:47:07;;;;;;;0.50;0.50;;;21.90;93.80;;;;;;5107656;28;20204;-40
2022/07/30 06:49:36;;;;;;;0.55;0.55;;;22.00;93.80;;;;;;5096582;28;20307;-41
2022/07/30 06:52:05;;;;;;;0.75;0.50;;;22.00;93.70;;;;;;5095882;28;20223;-39
2022/07/30 06:54:32;;;;;;;0.60;0.60;;;22.10;93.60;;;;;;5100189;28;20196;-40
2022/07/30 06:57:12;;;;;;;0.80;0.80;;;22.10;93.50;;;;;;5095601;28;20784;-44
2022/07/30 06:59:39;;;;;;;0.60;0.60;;;22.10;93.10;;;;;;5097397;28;20285;-40
2022/07/30 07:02:15;;;;;;;1.00;0.85;;;22.10;92.70;;;;;;5103626;28;20290;-42
2022/07/30 07:05:04;;;;;;;1.25;0.63;;;22.20;92.50;;;;;;5136173;27;20673;-43
2022/07/30 07:07:31;;;;;;;0.60;0.60;;;22.20;92.40;;;;;;5098957;28;20320;-47
2022/07/30 07:09:58;;;;;;;0.70;0.70;;;22.30;92.80;;;;;;5101144;28;20212;-47
2022/07/30 07:12:47;;;;;;;1.77;0.50;;;22.30;92.60;;;;;;5065562;28;20206;-43
2022/07/30 07:15:17;;;;;;;0.63;0.63;;;22.40;92.60;;;;;;5105274;28;20332;-46
2022/07/30 07:17:44;;;;;;;0.60;0.60;;;22.40;92.70;;;;;;5104211;28;20228;-44
2022/07/30 07:20:22;;;;;;;0.50;0.50;;;22.40;92.70;;;;;;5101063;28;20199;-46
2022/07/30 07:22:55;;;;;;;0.50;0.50;;;22.50;92.70;;;;;;5098968;28;20201;-44
2022/07/30 07:25:22;;;;;;;0.88;0.55;;;22.50;92.60;;;;;;5110930;28;20216;-46
2022/07/30 07:27:52;;;;;;;0.55;0.40;;;22.60;92.60;;;;;;5099967;28;20192;-42
2022/07/30 07:30:19;;;;;;;0.82;0.60;;;22.70;92.50;;;;;;5112003;28;20568;-40
2022/07/30 07:32:47;;;;;;;1.00;0.70;;;22.70;92.40;;;;;;5101420;28;20357;-44
2022/07/30 07:35:15;;;;;;;0.63;0.50;;;22.80;92.30;;;;;;5099012;28;20689;-41
2022/07/30 07:37:47;;;;;;;0.40;0.40;;;22.80;92.30;;;;;;5099092;28;20212;-41
2022/07/30 07:40:21;;;;;;;0.70;0.70;;;22.80;92.30;;;;;;5101017;28;20288;-42
2022/07/30 07:42:48;;;;;;;0.50;0.50;;;22.90;92.20;;;;;;5098720;28;20237;-43
2022/07/30 07:45:20;;;;;;;0.50;0.50;;;22.90;92.20;;;;;;5099827;28;20651;-44
2022/07/30 07:47:52;;;;;;;0.60;0.60;;;22.90;92.10;;;;;;5098527;28;20215;-44
2022/07/30 07:50:40;;;;;;;0.52;0.52;;;23.00;92.10;;;;;;5089456;28;20204;-41
2022/07/30 07:53:11;;;;;;;1.33;0.95;;;23.10;92.00;;;;;;5096542;28;20252;-45
2022/07/30 07:55:39;;;;;;;0.65;0.65;;;23.10;91.70;;;;;;5099211;28;20296;-42
2022/07/30 07:58:06;;;;;;;0.52;0.52;;;23.20;91.70;;;;;;5096047;28;20268;-42
2022/07/30 08:00:36;;;;;;;0.43;0.43;;;23.30;91.70;;;;;;5101362;28;20212;-41
2022/07/30 08:03:03;;;;;;;0.60;0.60;;;23.30;91.70;;;;;;5102154;28;20227;-42
2022/07/30 08:05:30;;;;;;;0.68;0.68;;;23.30;91.70;;;;;;5102360;28;20195;-45
2022/07/30 08:08:11;;;;;;;1.27;0.50;;;23.50;91.80;;;;;;5108039;28;20527;-44
2022/07/30 08:11:07;;;;;;;0.60;0.60;;;23.50;91.60;;;;;;5032847;28;20203;-44
2022/07/30 08:13:53;;;;;;;0.75;0.68;;;23.60;91.50;;;;;;5104781;28;20604;-44
2022/07/30 08:17:00;;;;;;;0.80;0.80;;;23.60;91.30;;;;;;5108950;28;20224;-45
2022/07/30 08:19:45;;;;;;;0.60;0.60;;;23.70;91.30;;;;;;5102729;28;20201;-42
2022/07/30 08:22:18;;;;;;;0.77;0.77;;;23.60;91.20;;;;;;5098361;28;20219;-45
2022/07/30 08:24:45;;;;;;;0.50;0.50;;;23.70;91.20;;;;;;5099592;28;20279;-46
2022/07/30 08:27:12;;;;;;;0.50;0.50;;;23.70;91.20;;;;;;5108549;28;20188;-46
2022/07/30 08:29:39;;;;;;;0.60;0.60;;;23.70;91.20;;;;;;5099225;28;20214;-39
2022/07/30 08:32:08;;;;;;;0.52;0.40;;;23.70;91.20;;;;;;5097869;28;20257;-42
2022/07/30 08:34:39;;;;;;;0.70;0.70;;;23.80;91.10;;;;;;5101585;28;20192;-45
2022/07/30 08:37:06;;;;;;;0.93;0.70;;;23.80;91.20;;;;;;5104835;28;20726;-40
2022/07/30 08:39:34;;;;;;;0.60;0.60;;;23.80;91.50;;;;;;5104253;28;20203;-36
2022/07/30 08:42:03;;;;;;;0.52;0.52;;;23.90;91.20;;;;;;5126817;27;20200;-39
2022/07/30 08:44:32;;;;;;;0.70;0.70;;;24.00;91.20;;;;;;5099437;28;20725;-37
2022/07/30 08:47:02;;;;;;;0.68;0.68;;;24.10;91.10;;;;;;5101908;28;20290;-42
2022/07/30 08:49:51;;;;;;;0.60;0.60;;;24.10;90.70;;;;;;5110152;28;20203;-37
2022/07/30 08:52:23;;;;;;;2.13;1.00;;;24.10;89.90;;;;;;5104335;28;20194;-37
2022/07/30 08:55:00;;;;;;;0.95;0.73;;;24.10;89.10;;;;;;5102233;28;20294;-38
2022/07/30 08:57:29;;;;;;;0.50;0.50;;;24.10;88.40;;;;;;5099429;28;20228;-38
2022/07/30 08:59:57;;;;;;;0.60;0.60;;;24.10;88.10;;;;;;5099567;28;20196;-43
2022/07/30 09:02:29;;;;;;;1.85;0.50;;;24.20;87.90;;;;;;5105027;28;20188;-43
2022/07/30 09:05:05;;;;;;;1.05;0.80;;;24.20;87.40;;;;;;5101007;28;20199;-39
2022/07/30 09:07:33;;;;;;;0.60;0.60;;;24.30;86.50;;;;;;5098547;28;20571;-39
2022/07/30 09:10:01;;;;;;;1.98;0.82;;;24.30;86.30;;;;;;5100260;28;20203;-37
2022/07/30 09:12:38;;;;;;;1.20;0.60;;;24.30;85.80;;;;;;5096378;28;20226;-40
2022/07/30 09:15:09;;;;;;;0.70;0.70;;;24.40;85.50;;;;;;5100069;28;20199;-40
2022/07/30 09:17:48;;;;;;;0.70;0.70;;;24.40;83.50;;;;;;5098323;28;20742;-41
2022/07/30 09:20:16;;;;;;;0.75;0.75;;;24.40;83.80;;;;;;5126233;27;20227;-42
2022/07/30 09:22:46;;;;;;;0.65;0.65;;;24.50;84.00;;;;;;5098297;28;20687;-40
2022/07/30 09:25:37;;;;;;;1.08;0.70;;;24.50;84.10;;;;;;5106479;28;20208;-42
2022/07/30 09:28:39;;;;;;;0.57;0.57;;;24.60;83.90;;;;;;5022222;28;20199;-38
2022/07/30 09:31:16;;;;;;;0.82;0.63;;;24.70;83.20;;;;;;5095012;28;20207;-37
2022/07/30 09:34:01;;;;;;;0.70;0.70;;;24.70;82.60;;;;;;5103707;28;20277;-37
2022/07/30 09:36:57;;;;;;;1.90;0.60;;;24.80;81.80;;;;;;5096444;28;20201;-40
2022/07/30 09:39:44;;;;;;;0.50;0.50;;;24.90;81.00;;;;;;5106817;28;20199;-38
2022/07/30 09:42:19;;;;;;;0.60;0.60;;;25.00;80.20;;;;;;5107130;28;20229;-43
2022/07/30 09:44:46;;;;;;;0.77;0.77;;;25.00;80.10;;;;;;5104978;28;20563;-40
2022/07/30 09:47:30;;;;;;;0.70;0.63;;;25.10;79.80;;;;;;5099130;28;20188;-41
2022/07/30 09:50:04;;;;;;;1.15;0.70;;;25.20;79.50;;;;;;5100399;28;20197;-44
2022/07/30 09:52:33;;;;;;;0.60;0.60;;;25.30;78.80;;;;;;5106390;28;20199;-44
2022/07/30 09:55:00;;;;;;;0.85;0.70;;;25.40;77.90;;;;;;5098939;28;20623;-41
2022/07/30 09:57:29;;;;;;;0.70;0.70;;;25.40;76.30;;;;;;5101581;28;20200;-44
2022/07/30 10:00:17;;;;;;;0.60;0.60;;;25.40;76.10;;;;;;5097787;28;20201;-41
2022/07/30 10:02:50;;;;;;;0.50;0.50;;;25.50;75.10;;;;;;5123513;27;20226;-45
2022/07/30 10:05:36;;;;;;;8.77;1.10;;;25.50;73.90;;;;;;5109701;28;20859;-44
2022/07/30 10:08:06;;;;;;;1.33;0.80;;;25.60;72.60;;;;;;5102600;28;20907;-45
2022/07/30 10:10:35;;;;;;;0.70;0.70;;;25.60;72.50;;;;;;5102127;28;20291;-44
2022/07/30 10:13:06;;;;;;;0.57;0.57;;;25.60;72.60;;;;;;5098395;28;20499;-46
2022/07/30 10:15:35;;;;;;;0.70;0.70;;;25.70;71.50;;;;;;5109196;28;20195;-44
2022/07/30 10:18:05;;;;;;;1.63;1.20;;;25.80;71.10;;;;;;5104535;28;20603;-41
2022/07/30 10:20:59;;;;;;;1.25;0.85;;;25.80;70.80;;;;;;5076842;28;20565;-46
2022/07/30 10:23:52;;;;;;;6.43;1.10;;;25.80;70.10;;;;;;5107532;28;20670;-42
2022/07/30 10:26:38;;;;;;;2.55;1.00;;;25.80;69.10;;;;;;5098336;28;20227;-42
2022/07/30 10:29:24;;;;;;;1.63;0.80;;;25.80;69.40;;;;;;5095845;28;20268;-47
2022/07/30 10:31:51;;;;;;;1.00;1.00;;;25.70;68.50;;;;;;5109013;28;20222;-42
2022/07/30 10:34:20;;;;;;;0.55;0.55;;;25.80;69.60;;;;;;5104894;28;20192;-40
2022/07/30 10:36:51;;;;;;;0.60;0.60;;;25.80;70.30;;;;;;5106472;28;20215;-41
2022/07/30 10:39:27;;;;;;;1.38;0.80;;;25.90;70.50;;;;;;5105799;28;20279;-40
2022/07/30 10:42:05;;;;;;;1.10;1.10;;;26.00;70.80;;;;;;5105777;28;20240;-42
2022/07/30 10:44:59;;;;;;;1.95;1.00;;;26.00;71.50;;;;;;5099111;28;20309;-39
2022/07/30 10:47:27;;;;;;;0.98;0.88;;;26.10;72.10;;;;;;5110612;28;20350;-42
2022/07/30 10:50:09;;;;;;;1.02;0.82;;;26.20;72.50;;;;;;5112447;27;20275;-41
2022/07/30 10:52:49;;;;;;;2.25;1.00;;;26.20;71.90;;;;;;5110418;28;20651;-45
2022/07/30 10:55:19;;;;;;;3.33;1.50;;;26.30;70.10;;;;;;5111302;28;20206;-46
2022/07/30 10:58:00;;;;;;;1.42;1.30;;;26.30;68.70;;;;;;5102870;28;20204;-43
2022/07/30 11:00:28;;;;;;;2.63;0.80;;;26.30;67.80;;;;;;5111058;28;20295;-46
2022/07/30 11:03:12;;;;;;;1.85;1.00;;;26.30;67.90;;;;;;5111790;28;20191;-46
2022/07/30 11:05:40;;;;;;;1.30;1.27;;;26.20;68.50;;;;;;5103568;28;20219;-43
2022/07/30 11:08:29;;;;;;;3.55;1.10;;;26.20;66.40;;;;;;5111491;28;20206;-42
2022/07/30 11:10:57;;;;;;;3.30;1.25;;;26.20;66.60;;;;;;5111364;28;20199;-46
2022/07/30 11:13:49;;;;;;;1.50;0.90;;;26.20;68.00;;;;;;5107322;28;20651;-44
2022/07/30 11:16:18;;;;;;;1.08;0.88;;;26.20;68.60;;;;;;5100695;27;20286;-44
2022/07/30 11:19:10;;;;;;;3.40;1.10;;;26.20;68.30;;;;;;5110114;27;20280;-41
2022/07/30 11:21:38;;;;;;;2.58;0.80;;;26.20;67.60;;;;;;5110845;28;20237;-44
2022/07/30 11:24:06;;;;;;;0.93;0.80;;;26.20;66.80;;;;;;5111533;28;20200;-42
2022/07/30 11:26:55;;;;;;;1.58;0.73;;;26.20;67.10;;;;;;5103426;28;20185;-47
2022/07/30 11:29:37;;;;;;;0.60;0.60;;;26.20;67.40;;;;;;5100891;28;20200;-42
2022/07/30 11:32:27;;;;;;;2.47;1.02;;;26.30;67.30;;;;;;5102624;28;20220;-42
2022/07/30 11:35:20;;;;;;;0.82;0.80;;;26.30;65.60;;;;;;5109347;28;20224;-45
2022/07/30 11:38:02;;;;;;;1.30;1.10;;;26.30;63.70;;;;;;5109176;28;20229;-41
2022/07/30 11:40:31;;;;;;;2.47;0.80;;;26.30;62.50;;;;;;5108663;28;20187;-41
2022/07/30 11:43:21;;;;;;;1.95;0.80;;;26.30;62.70;;;;;;5107034;28;20681;-43
2022/07/30 11:45:51;;;;;;;1.08;0.80;;;26.30;63.30;;;;;;5107927;28;20196;-42
2022/07/30 11:48:20;;;;;;;6.53;0.80;;;26.30;63.50;;;;;;5098921;28;20219;-44
2022/07/30 11:50:47;;;;;;;1.30;0.75;;;26.30;63.00;;;;;;5109260;28;20222;-41
2022/07/30 11:53:19;;;;;;;0.80;0.80;;;26.20;63.20;;;;;;5110965;28;20269;-41
2022/07/30 11:55:51;;;;;;;0.73;0.73;;;26.20;63.40;;;;;;5110696;28;20225;-38
2022/07/30 11:58:28;;;;;;;2.80;1.63;;;26.30;64.90;;;;;;5105244;28;20572;-43
2022/07/30 12:00:56;;;;;;;2.67;1.10;;;26.30;67.20;;;;;;5109495;28;20283;-37
2022/07/30 12:03:26;;;;;;;26.52;2.70;;;26.30;67.50;;;;;;5105275;28;20211;-42
2022/07/30 12:05:53;;;;;;;5.28;1.42;;;26.30;67.90;;;;;;5104328;28;20184;-39
2022/07/30 12:08:21;;;;;;;0.85;0.85;;;26.30;68.20;;;;;;5103971;28;20644;-40
2022/07/30 12:10:59;;;;;;;2.75;0.82;;;26.30;68.50;;;;;;5110974;28;20199;-41
2022/07/30 12:13:28;;;;;;;0.77;0.60;;;26.30;68.70;;;;;;5107459;28;20188;-47
2022/07/30 12:15:55;;;;;;;0.82;0.80;;;26.30;69.40;;;;;;5109982;28;20566;-37
2022/07/30 12:18:26;;;;;;;2.90;1.02;;;26.30;68.90;;;;;;5109045;28;20677;-38
2022/07/30 12:20:58;;;;;;;2.92;0.70;;;26.30;69.00;;;;;;5109521;28;20188;-41
2022/07/30 12:23:26;;;;;;;3.05;1.10;;;26.30;68.30;;;;;;5108077;28;20726;-39
2022/07/30 12:25:53;;;;;;;1.13;0.85;;;26.30;68.60;;;;;;5104431;28;20551;-38
2022/07/30 12:28:21;;;;;;;1.13;0.95;;;26.30;69.10;;;;;;5103921;28;20271;-39
2022/07/30 12:30:50;;;;;;;3.20;0.95;;;26.20;68.90;;;;;;5108537;28;20233;-38
2022/07/30 12:33:17;;;;;;;1.10;0.93;;;26.20;68.90;;;;;;5109673;28;20274;-38
2022/07/30 12:35:46;;;;;;;0.70;0.70;;;26.10;68.70;;;;;;5099336;28;20256;-37
2022/07/30 12:38:13;;;;;;;0.70;0.70;;;26.10;69.10;;;;;;5107816;28;20243;-37
2022/07/30 12:40:58;;;;;;;2.35;0.77;;;26.00;69.30;;;;;;5100122;28;20203;-40
2022/07/30 12:43:46;;;;;;;0.90;0.88;;;25.90;69.40;;;;;;5107096;28;20191;-38
2022/07/30 12:46:17;;;;;;;0.93;0.88;;;25.90;69.80;;;;;;5107376;28;20188;-38
2022/07/30 12:48:52;;;;;;;0.82;0.80;;;25.90;70.30;;;;;;5108530;28;20521;-37
2022/07/30 12:51:20;;;;;;;1.00;1.00;;;25.90;71.40;;;;;;5110901;28;20192;-38
2022/07/30 12:53:47;;;;;;;2.58;0.80;;;26.00;72.20;;;;;;5105642;28;20269;-37
2022/07/30 12:56:16;;;;;;;2.42;1.02;;;25.90;72.20;;;;;;5108768;28;20207;-38
2022/07/30 12:58:43;;;;;;;0.70;0.70;;;25.90;73.10;;;;;;5106740;28;20294;-40
2022/07/30 13:01:11;;;;;;;1.88;0.80;;;25.90;73.60;;;;;;5103489;28;20204;-39
2022/07/30 13:03:40;;;;;;;0.90;0.90;;;25.80;73.20;;;;;;5099748;28;20729;-38
2022/07/30 13:06:18;;;;;;;1.02;0.90;;;25.80;72.80;;;;;;5107183;28;20295;-42
2022/07/30 13:08:46;;;;;;;0.80;0.80;;;25.80;73.30;;;;;;5108237;28;20249;-40
2022/07/30 13:11:14;;;;;;;3.78;0.95;;;25.80;73.60;;;;;;5108118;28;20187;-42
2022/07/30 13:13:41;;;;;;;1.08;0.82;;;25.80;73.60;;;;;;5106964;28;20308;-44